createdAt,value
2018-06-03T00:00:08.344Z,28.80
2018-06-03T00:01:08.308Z,28.80
2018-06-03T00:02:08.264Z,28.20
2018-06-03T00:03:08.232Z,30.40
2018-06-03T00:04:08.182Z,28.10
2018-06-03T00:05:08.144Z,28.60
2018-06-03T00:06:08.103Z,28.90
2018-06-03T00:07:08.063Z,30.60
2018-06-03T00:08:08.023Z,27.70
2018-06-03T00:09:07.981Z,28.90
2018-06-03T00:10:07.939Z,27.50
2018-06-03T00:11:07.903Z,29.20
2018-06-03T00:12:07.863Z,27.00
2018-06-03T00:13:07.820Z,29.30
2018-06-03T00:14:07.775Z,27.70
2018-06-03T00:15:07.737Z,28.70
2018-06-03T00:16:07.697Z,31.90
2018-06-03T00:17:07.666Z,30.10
2018-06-03T00:18:07.615Z,28.60
2018-06-03T00:19:07.573Z,28.90
2018-06-03T00:20:07.546Z,31.00
2018-06-03T00:21:07.493Z,31.50
2018-06-03T00:22:07.454Z,28.60
2018-06-03T00:23:07.411Z,30.70
2018-06-03T00:24:07.373Z,31.20
2018-06-03T00:25:07.338Z,30.30
2018-06-03T00:26:07.343Z,28.70
2018-06-03T00:27:07.251Z,29.90
2018-06-03T00:28:07.211Z,32.20
2018-06-03T00:29:07.169Z,29.50
2018-06-03T00:30:07.132Z,29.40
2018-06-03T00:31:07.093Z,30.90
2018-06-03T00:32:07.048Z,29.70
2018-06-03T00:33:07.010Z,35.60
2018-06-03T00:34:06.967Z,33.00
2018-06-03T00:35:06.925Z,34.60
2018-06-03T00:36:06.886Z,30.70
2018-06-03T00:37:06.849Z,32.40
2018-06-03T00:38:06.805Z,31.10
2018-06-03T00:39:06.762Z,31.80
2018-06-03T00:40:06.723Z,31.10
2018-06-03T00:41:06.681Z,31.10
2018-06-03T00:42:06.640Z,32.90
2018-06-03T00:43:06.602Z,31.40
2018-06-03T00:44:06.559Z,34.60
2018-06-03T00:45:06.522Z,35.30
2018-06-03T00:46:06.476Z,35.80
2018-06-03T00:47:06.438Z,35.30
2018-06-03T00:48:06.398Z,36.40
2018-06-03T00:49:06.356Z,36.10
2018-06-03T00:50:06.319Z,37.20
2018-06-03T00:51:06.273Z,38.50
2018-06-03T00:52:06.234Z,36.80
2018-06-03T00:53:06.193Z,38.50
2018-06-03T00:54:06.149Z,36.30
2018-06-03T00:55:06.116Z,35.60
2018-06-03T00:56:06.072Z,36.20
2018-06-03T00:57:06.033Z,34.60
2018-06-03T00:58:05.992Z,35.40
2018-06-03T00:59:05.946Z,35.30
2018-06-03T01:00:05.907Z,37.00
2018-06-03T01:01:05.866Z,39.50
2018-06-03T01:02:05.823Z,35.30
2018-06-03T01:03:05.784Z,36.60
2018-06-03T01:04:05.743Z,41.50
2018-06-03T01:05:05.702Z,37.70
2018-06-03T01:06:05.664Z,38.10
2018-06-03T01:07:05.627Z,39.30
2018-06-03T01:08:05.578Z,41.70
2018-06-03T01:09:05.537Z,40.30
2018-06-03T01:10:05.497Z,39.80
2018-06-03T01:11:05.456Z,42.90
2018-06-03T01:12:05.415Z,42.40
2018-06-03T01:13:05.375Z,39.90
2018-06-03T01:14:05.335Z,42.00
2018-06-03T01:15:05.292Z,39.60
2018-06-03T01:16:05.251Z,40.80
2018-06-03T01:17:05.209Z,45.40
2018-06-03T01:18:05.168Z,41.00
2018-06-03T01:19:05.131Z,40.60
2018-06-03T01:20:05.086Z,46.70
2018-06-03T01:21:05.046Z,40.30
2018-06-03T01:22:05.004Z,42.20
2018-06-03T01:23:04.963Z,44.80
2018-06-03T01:24:04.924Z,47.10
2018-06-03T01:25:04.880Z,44.30
2018-06-03T01:26:04.841Z,44.90
2018-06-03T01:27:04.803Z,42.20
2018-06-03T01:28:04.761Z,47.00
2018-06-03T01:29:04.718Z,46.60
2018-06-03T01:30:04.679Z,44.40
2018-06-03T01:31:04.635Z,45.80
2018-06-03T01:32:04.594Z,44.00
2018-06-03T01:33:04.553Z,45.00
2018-06-03T01:34:04.517Z,42.00
2018-06-03T01:35:04.471Z,44.90
2018-06-03T01:36:04.433Z,41.90
2018-06-03T01:37:04.388Z,47.40
2018-06-03T01:38:04.346Z,45.60
2018-06-03T01:39:04.307Z,47.20
2018-06-03T01:40:04.271Z,50.30
2018-06-03T01:41:04.232Z,53.40
2018-06-03T01:42:04.186Z,55.10
2018-06-03T01:43:04.143Z,56.30
2018-06-03T01:44:04.101Z,54.60
2018-06-03T01:45:04.061Z,52.90
2018-06-03T01:46:04.021Z,55.50
2018-06-03T01:47:03.979Z,55.50
2018-06-03T01:48:03.950Z,53.60
2018-06-03T01:49:03.896Z,53.10
2018-06-03T01:50:03.874Z,51.90
2018-06-03T01:51:03.813Z,49.10
2018-06-03T01:52:03.777Z,50.60
2018-06-03T01:53:03.735Z,52.50
2018-06-03T01:54:03.691Z,49.60
2018-06-03T01:55:03.647Z,49.10
2018-06-03T01:56:03.609Z,53.10
2018-06-03T01:57:03.567Z,55.10
2018-06-03T01:58:03.528Z,56.30
2018-06-03T01:59:03.484Z,55.30
2018-06-03T02:00:03.442Z,55.80
2018-06-03T02:01:03.405Z,50.20
2018-06-03T02:02:03.361Z,57.50
2018-06-03T02:03:03.323Z,57.30
2018-06-03T02:04:03.279Z,59.30
2018-06-03T02:05:03.245Z,61.10
2018-06-03T02:06:03.198Z,52.70
2018-06-03T02:07:03.155Z,53.60
2018-06-03T02:08:03.117Z,57.10
2018-06-03T02:09:03.074Z,55.30
2018-06-03T02:10:03.038Z,59.20
2018-06-03T02:11:02.991Z,57.20
2018-06-03T02:12:02.950Z,54.40
2018-06-03T02:13:02.911Z,54.10
2018-06-03T02:14:02.870Z,51.20
2018-06-03T02:15:02.828Z,53.10
2018-06-03T02:16:02.786Z,52.60
2018-06-03T02:17:02.745Z,52.00
2018-06-03T02:18:02.702Z,51.50
2018-06-03T02:19:02.668Z,50.20
2018-06-03T02:20:02.624Z,53.40
2018-06-03T02:21:02.584Z,51.60
2018-06-03T02:22:02.542Z,56.70
2018-06-03T02:23:02.502Z,50.70
2018-06-03T02:24:02.457Z,50.20
2018-06-03T02:25:02.420Z,47.70
2018-06-03T02:26:02.376Z,50.80
2018-06-03T02:27:02.342Z,52.00
2018-06-03T02:28:02.294Z,50.40
2018-06-03T02:29:02.253Z,53.00
2018-06-03T02:30:02.221Z,50.70
2018-06-03T02:31:02.176Z,52.10
2018-06-03T02:32:02.134Z,52.10
2018-06-03T02:33:02.096Z,49.10
2018-06-03T02:34:02.048Z,51.70
2018-06-03T02:35:02.008Z,55.00
2018-06-03T02:36:01.965Z,51.10
2018-06-03T02:37:01.926Z,53.30
2018-06-03T02:38:01.895Z,53.80
2018-06-03T02:39:01.849Z,55.80
2018-06-03T02:40:01.807Z,53.50
2018-06-03T02:41:01.766Z,52.30
2018-06-03T02:42:01.739Z,50.00
2018-06-03T02:43:01.681Z,52.50
2018-06-03T02:44:01.640Z,50.00
2018-06-03T02:45:01.599Z,50.10
2018-06-03T02:46:01.563Z,52.40
2018-06-03T02:47:01.516Z,52.50
2018-06-03T02:48:01.482Z,52.10
2018-06-03T02:49:01.438Z,52.30
2018-06-03T02:51:01.351Z,49.10
2018-06-03T02:52:01.321Z,52.00
2018-06-03T02:53:01.272Z,53.10
2018-06-03T02:54:01.231Z,53.30
2018-06-03T02:55:01.189Z,52.30
2018-06-03T02:56:01.148Z,54.90
2018-06-03T02:57:01.108Z,56.50
2018-06-03T02:58:01.069Z,51.60
2018-06-03T02:59:01.031Z,49.00
2018-06-03T03:00:00.987Z,45.00
2018-06-03T03:01:00.952Z,49.80
2018-06-03T03:02:00.907Z,51.70
2018-06-03T03:03:00.861Z,52.80
2018-06-03T03:04:00.820Z,51.10
2018-06-03T03:05:00.780Z,50.30
2018-06-03T03:06:00.744Z,51.30
2018-06-03T03:07:00.702Z,55.30
2018-06-03T03:08:00.654Z,56.30
2018-06-03T03:09:00.619Z,52.20
2018-06-03T03:10:00.574Z,51.60
2018-06-03T03:11:00.544Z,52.70
2018-06-03T03:12:00.493Z,53.00
2018-06-03T03:13:00.453Z,53.90
2018-06-03T03:14:00.410Z,53.00
2018-06-03T03:15:00.368Z,52.90
2018-06-03T03:16:00.328Z,53.80
2018-06-03T03:17:00.292Z,52.00
2018-06-03T03:18:00.261Z,53.70
2018-06-03T03:19:00.223Z,54.90
2018-06-03T03:20:00.241Z,55.70
2018-06-03T03:21:00.125Z,56.40
2018-06-03T03:22:00.080Z,54.80
2018-06-03T03:23:00.043Z,50.10
2018-06-03T03:24:00.018Z,51.30
2018-06-03T03:24:59.963Z,51.50
2018-06-03T03:25:59.920Z,49.20
2018-06-03T03:26:59.886Z,50.20
2018-06-03T03:27:59.837Z,51.60
2018-06-03T03:28:59.796Z,54.20
2018-06-03T03:29:59.761Z,50.30
2018-06-03T03:30:59.717Z,51.20
2018-06-03T03:31:59.677Z,49.60
2018-06-03T03:32:59.633Z,53.00
2018-06-03T03:33:59.592Z,52.40
2018-06-03T03:34:59.553Z,53.30
2018-06-03T03:35:59.510Z,48.60
2018-06-03T03:36:59.473Z,51.10
2018-06-03T03:37:59.431Z,52.10
2018-06-03T03:38:59.390Z,55.50
2018-06-03T03:39:59.348Z,53.50
2018-06-03T03:40:59.310Z,52.10
2018-06-03T03:41:59.267Z,55.20
2018-06-03T03:42:59.225Z,56.10
2018-06-03T03:43:59.183Z,51.80
2018-06-03T03:44:59.148Z,54.80
2018-06-03T03:45:59.104Z,50.30
2018-06-03T03:46:59.065Z,51.60
2018-06-03T03:47:59.023Z,53.00
2018-06-03T03:48:58.984Z,51.40
2018-06-03T03:49:58.941Z,50.00
2018-06-03T03:50:58.902Z,52.60
2018-06-03T03:51:58.860Z,55.90
2018-06-03T03:52:58.817Z,54.70
2018-06-03T03:53:58.780Z,58.30
2018-06-03T03:54:58.737Z,60.90
2018-06-03T03:55:58.694Z,56.40
2018-06-03T03:56:58.655Z,58.30
2018-06-03T03:57:58.614Z,53.80
2018-06-03T03:58:58.578Z,56.60
2018-06-03T03:59:58.530Z,57.60
2018-06-03T04:00:58.490Z,56.10
2018-06-03T04:01:58.453Z,55.10
2018-06-03T04:02:58.407Z,52.30
2018-06-03T04:03:58.368Z,55.60
2018-06-03T04:04:58.334Z,53.10
2018-06-03T04:05:58.297Z,52.50
2018-06-03T04:06:58.246Z,54.40
2018-06-03T04:07:58.209Z,56.90
2018-06-03T04:08:58.168Z,56.60
2018-06-03T04:09:58.122Z,56.30
2018-06-03T04:10:58.084Z,58.80
2018-06-03T04:11:58.042Z,58.50
2018-06-03T04:12:58.001Z,60.60
2018-06-03T04:13:57.960Z,58.40
2018-06-03T04:14:57.919Z,56.20
2018-06-03T04:15:57.880Z,58.00
2018-06-03T04:16:57.836Z,54.90
2018-06-03T04:17:57.797Z,55.80
2018-06-03T04:18:57.755Z,54.50
2018-06-03T04:19:57.717Z,56.70
2018-06-03T04:20:57.680Z,55.20
2018-06-03T04:21:57.654Z,52.30
2018-06-03T04:22:57.600Z,53.60
2018-06-03T04:23:57.552Z,52.80
2018-06-03T04:24:57.518Z,51.20
2018-06-03T04:25:57.476Z,53.80
2018-06-03T04:26:57.433Z,52.60
2018-06-03T04:27:57.395Z,52.30
2018-06-03T04:28:57.355Z,54.90
2018-06-03T04:29:57.313Z,52.10
2018-06-03T04:30:57.270Z,50.90
2018-06-03T04:31:57.227Z,54.30
2018-06-03T04:32:57.187Z,54.10
2018-06-03T04:33:57.150Z,57.50
2018-06-03T04:34:57.107Z,58.60
2018-06-03T04:35:57.065Z,60.40
2018-06-03T04:36:57.028Z,57.90
2018-06-03T04:37:56.983Z,56.20
2018-06-03T04:38:56.948Z,53.80
2018-06-03T04:39:56.904Z,56.80
2018-06-03T04:40:56.864Z,57.60
2018-06-03T04:41:56.825Z,59.00
2018-06-03T04:42:56.780Z,58.10
2018-06-03T04:43:56.739Z,59.60
2018-06-03T04:44:56.700Z,59.90
2018-06-03T04:45:56.665Z,56.30
2018-06-03T04:46:56.623Z,57.90
2018-06-03T04:47:56.580Z,54.20
2018-06-03T04:48:56.538Z,58.80
2018-06-03T04:49:56.496Z,55.20
2018-06-03T04:50:56.456Z,57.70
2018-06-03T04:51:56.416Z,58.00
2018-06-03T04:52:56.376Z,54.00
2018-06-03T04:53:56.333Z,57.00
2018-06-03T04:54:56.349Z,61.80
2018-06-03T04:55:56.257Z,63.40
2018-06-03T04:56:56.216Z,60.80
2018-06-03T04:57:56.178Z,65.00
2018-06-03T04:58:56.142Z,69.30
2018-06-03T04:59:56.092Z,61.60
2018-06-03T05:00:56.054Z,61.40
2018-06-03T05:01:56.012Z,62.50
2018-06-03T05:02:55.976Z,64.60
2018-06-03T05:03:55.933Z,74.50
2018-06-03T05:04:55.894Z,75.90
2018-06-03T05:05:55.851Z,70.20
2018-06-03T05:06:55.810Z,70.80
2018-06-03T05:07:55.783Z,66.70
2018-06-03T05:08:55.731Z,68.10
2018-06-03T05:09:55.690Z,71.80
2018-06-03T05:10:55.655Z,72.10
2018-06-03T05:11:55.613Z,73.60
2018-06-03T05:12:55.567Z,73.30
2018-06-03T05:13:55.527Z,77.50
2018-06-03T05:14:55.489Z,76.90
2018-06-03T05:15:55.448Z,78.80
2018-06-03T05:16:55.411Z,81.90
2018-06-03T05:17:55.366Z,78.90
2018-06-03T05:18:55.328Z,80.10
2018-06-03T05:19:55.284Z,76.70
2018-06-03T05:20:55.256Z,76.60
2018-06-03T05:21:55.203Z,81.50
2018-06-03T05:22:55.168Z,75.80
2018-06-03T05:23:55.125Z,74.40
2018-06-03T05:24:55.090Z,80.40
2018-06-03T05:25:55.043Z,78.30
2018-06-03T05:26:55.008Z,77.50
2018-06-03T05:27:54.965Z,76.00
2018-06-03T05:28:54.924Z,76.60
2018-06-03T05:29:54.884Z,76.40
2018-06-03T05:30:54.858Z,75.30
2018-06-03T05:31:54.805Z,75.00
2018-06-03T05:32:54.763Z,75.00
2018-06-03T05:33:54.723Z,78.60
2018-06-03T05:34:54.685Z,75.20
2018-06-03T05:35:54.645Z,79.40
2018-06-03T05:36:54.607Z,72.60
2018-06-03T05:37:54.566Z,72.40
2018-06-03T05:38:54.524Z,70.90
2018-06-03T05:39:54.483Z,71.10
2018-06-03T05:40:54.447Z,70.90
2018-06-03T05:41:54.403Z,74.80
2018-06-03T05:42:54.375Z,72.20
2018-06-03T05:43:54.328Z,69.30
2018-06-03T05:44:54.286Z,70.30
2018-06-03T05:45:54.243Z,72.40
2018-06-03T05:46:54.202Z,71.40
2018-06-03T05:47:54.164Z,68.30
2018-06-03T05:48:54.124Z,68.10
2018-06-03T05:49:54.084Z,71.50
2018-06-03T05:50:54.041Z,68.80
2018-06-03T05:51:54.005Z,67.80
2018-06-03T05:52:53.971Z,69.90
2018-06-03T05:53:53.923Z,68.50
2018-06-03T05:54:53.884Z,67.50
2018-06-03T05:55:53.884Z,68.50
2018-06-03T05:56:53.805Z,69.60
2018-06-03T05:57:53.764Z,68.00
2018-06-03T05:58:53.725Z,70.90
2018-06-03T05:59:53.688Z,68.90
2018-06-03T06:00:53.650Z,62.50
2018-06-03T06:01:53.608Z,68.20
2018-06-03T06:02:53.566Z,70.20
2018-06-03T06:03:53.531Z,67.90
2018-06-03T06:04:53.485Z,65.30
2018-06-03T06:05:53.449Z,64.10
2018-06-03T06:06:53.421Z,69.40
2018-06-03T06:07:53.376Z,66.20
2018-06-03T06:08:53.333Z,69.70
2018-06-03T06:09:53.287Z,66.00
2018-06-03T06:10:53.249Z,65.40
2018-06-03T06:11:53.208Z,62.80
2018-06-03T06:12:53.172Z,66.20
2018-06-03T06:13:53.130Z,63.30
2018-06-03T06:14:53.098Z,61.40
2018-06-03T06:15:53.051Z,62.40
2018-06-03T06:16:53.015Z,63.40
2018-06-03T06:17:52.975Z,62.20
2018-06-03T06:18:52.939Z,67.20
2018-06-03T06:19:52.893Z,64.00
2018-06-03T06:20:52.858Z,61.60
2018-06-03T06:21:52.817Z,63.30
2018-06-03T06:22:52.773Z,63.80
2018-06-03T06:23:52.734Z,62.80
2018-06-03T06:24:52.693Z,61.20
2018-06-03T06:25:52.657Z,57.10
2018-06-03T06:26:52.615Z,59.90
2018-06-03T06:27:52.577Z,60.20
2018-06-03T06:28:52.538Z,59.90
2018-06-03T06:29:52.496Z,56.30
2018-06-03T06:30:52.454Z,55.90
2018-06-03T06:31:52.420Z,59.40
2018-06-03T06:32:52.381Z,57.20
2018-06-03T06:33:52.339Z,60.20
2018-06-03T06:34:52.294Z,60.20
2018-06-03T06:35:52.259Z,62.30
2018-06-03T06:36:52.216Z,58.90
2018-06-03T06:37:52.177Z,60.70
2018-06-03T06:38:52.140Z,61.70
2018-06-03T06:39:52.106Z,57.90
2018-06-03T06:40:52.062Z,61.80
2018-06-03T06:41:52.021Z,60.10
2018-06-03T06:42:51.981Z,60.70
2018-06-03T06:43:51.941Z,58.10
2018-06-03T06:44:51.906Z,60.30
2018-06-03T06:45:51.863Z,62.60
2018-06-03T06:46:51.824Z,59.60
2018-06-03T06:47:51.793Z,59.90
2018-06-03T06:48:51.747Z,60.00
2018-06-03T06:49:51.708Z,58.30
2018-06-03T06:50:51.668Z,61.00
2018-06-03T06:51:51.633Z,59.40
2018-06-03T06:52:51.593Z,59.40
2018-06-03T06:53:51.552Z,61.20
2018-06-03T06:54:51.513Z,61.20
2018-06-03T06:55:51.475Z,62.20
2018-06-03T06:56:51.434Z,62.00
2018-06-03T06:57:51.395Z,58.30
2018-06-03T06:58:51.359Z,58.20
2018-06-03T06:59:51.317Z,58.40
2018-06-03T07:00:51.287Z,56.80
2018-06-03T07:01:51.245Z,61.20
2018-06-03T07:02:51.210Z,58.10
2018-06-03T07:03:51.166Z,57.20
2018-06-03T07:04:51.130Z,58.00
2018-06-03T07:05:51.084Z,57.00
2018-06-03T07:06:51.047Z,56.40
2018-06-03T07:07:51.008Z,56.00
2018-06-03T07:08:50.971Z,54.70
2018-06-03T07:09:50.936Z,49.40
2018-06-03T07:10:50.896Z,52.40
2018-06-03T07:11:50.853Z,55.00
2018-06-03T07:12:50.812Z,49.20
2018-06-03T07:13:50.777Z,51.10
2018-06-03T07:14:50.737Z,50.50
2018-06-03T07:15:50.700Z,50.30
2018-06-03T07:16:50.664Z,48.80
2018-06-03T07:17:50.622Z,53.60
2018-06-03T07:18:50.582Z,51.00
2018-06-03T07:19:50.544Z,49.60
2018-06-03T07:20:50.504Z,50.40
2018-06-03T07:21:50.468Z,49.30
2018-06-03T07:22:50.427Z,52.00
2018-06-03T07:23:50.392Z,52.20
2018-06-03T07:24:50.351Z,49.00
2018-06-03T07:25:50.311Z,49.10
2018-06-03T07:26:50.269Z,49.00
2018-06-03T07:27:50.236Z,47.90
2018-06-03T07:28:50.192Z,49.20
2018-06-03T07:29:50.156Z,47.80
2018-06-03T07:30:50.116Z,46.80
2018-06-03T07:31:50.088Z,51.50
2018-06-03T07:32:50.042Z,50.30
2018-06-03T07:33:49.998Z,49.50
2018-06-03T07:34:49.961Z,48.00
2018-06-03T07:35:49.922Z,49.30
2018-06-03T07:36:49.882Z,49.30
2018-06-03T07:37:49.843Z,48.70
2018-06-03T07:38:49.806Z,48.20
2018-06-03T07:39:49.767Z,46.20
2018-06-03T07:40:49.729Z,49.50
2018-06-03T07:41:49.689Z,47.10
2018-06-03T07:42:49.655Z,50.20
2018-06-03T07:43:49.614Z,53.90
2018-06-03T07:44:49.577Z,54.10
2018-06-03T07:45:49.535Z,52.40
2018-06-03T07:46:49.496Z,53.10
2018-06-03T07:47:49.457Z,54.20
2018-06-03T07:48:49.420Z,52.40
2018-06-03T07:49:49.379Z,54.40
2018-06-03T07:50:49.343Z,54.90
2018-06-03T07:51:49.303Z,54.80
2018-06-03T07:52:49.266Z,53.70
2018-06-03T07:53:49.226Z,55.20
2018-06-03T07:54:49.187Z,56.30
2018-06-03T07:55:49.146Z,56.00
2018-06-03T07:56:49.119Z,55.50
2018-06-03T07:57:49.109Z,53.90
2018-06-03T07:58:49.034Z,59.30
2018-06-03T07:59:49.013Z,55.40
2018-06-03T08:00:48.963Z,55.20
2018-06-03T08:01:48.938Z,56.30
2018-06-03T08:02:48.873Z,60.20
2018-06-03T08:03:48.838Z,55.40
2018-06-03T08:04:48.797Z,58.20
2018-06-03T08:05:48.757Z,55.80
2018-06-03T08:06:48.725Z,59.50
2018-06-03T08:07:48.680Z,59.30
2018-06-03T08:08:48.643Z,57.60
2018-06-03T08:09:48.603Z,57.20
2018-06-03T08:10:48.564Z,59.00
2018-06-03T08:11:48.527Z,60.30
2018-06-03T08:12:48.486Z,59.40
2018-06-03T08:13:48.508Z,62.40
2018-06-03T08:14:48.410Z,61.60
2018-06-03T08:15:48.371Z,61.00
2018-06-03T08:16:48.333Z,66.60
2018-06-03T08:17:48.293Z,65.90
2018-06-03T08:18:48.263Z,64.40
2018-06-03T08:19:48.219Z,65.00
2018-06-03T08:20:48.180Z,70.30
2018-06-03T08:21:48.139Z,66.20
2018-06-03T08:22:48.113Z,70.70
2018-06-03T08:23:48.060Z,70.40
2018-06-03T08:24:48.022Z,72.60
2018-06-03T08:25:47.984Z,73.00
2018-06-03T08:26:47.943Z,78.70
2018-06-03T08:27:47.913Z,73.00
2018-06-03T08:28:47.869Z,70.70
2018-06-03T08:29:47.880Z,75.60
2018-06-03T08:30:47.787Z,71.90
2018-06-03T08:31:47.754Z,74.80
2018-06-03T08:32:47.712Z,75.70
2018-06-03T08:33:47.667Z,70.50
2018-06-03T08:34:47.630Z,76.90
2018-06-03T08:35:47.591Z,73.00
2018-06-03T08:36:47.557Z,73.40
2018-06-03T08:37:47.519Z,69.80
2018-06-03T08:38:47.482Z,70.60
2018-06-03T08:39:47.435Z,74.60
2018-06-03T08:40:47.402Z,67.60
2018-06-03T08:41:47.360Z,68.20
2018-06-03T08:42:47.319Z,65.00
2018-06-03T08:43:47.278Z,62.70
2018-06-03T08:44:47.255Z,63.40
2018-06-03T08:45:47.204Z,62.30
2018-06-03T08:46:47.161Z,60.30
2018-06-03T08:47:47.123Z,63.40
2018-06-03T08:48:47.085Z,64.60
2018-06-03T08:49:47.047Z,58.10
2018-06-03T08:50:47.005Z,57.80
2018-06-03T08:51:46.965Z,57.10
2018-06-03T08:52:46.928Z,57.00
2018-06-03T08:53:46.891Z,59.10
2018-06-03T08:54:46.849Z,56.20
2018-06-03T08:55:46.811Z,57.40
2018-06-03T08:56:46.773Z,54.90
2018-06-03T08:57:46.732Z,57.00
2018-06-03T08:58:46.694Z,55.80
2018-06-03T08:59:46.658Z,56.50
2018-06-03T09:00:46.621Z,55.80
2018-06-03T09:01:46.580Z,56.90
2018-06-03T09:02:46.537Z,57.50
2018-06-03T09:03:46.498Z,56.00
2018-06-03T09:04:46.460Z,58.40
2018-06-03T09:05:46.426Z,54.50
2018-06-03T09:06:46.386Z,53.00
2018-06-03T09:07:46.342Z,55.40
2018-06-03T09:08:46.312Z,55.30
2018-06-03T09:09:46.269Z,53.70
2018-06-03T09:10:46.231Z,50.70
2018-06-03T09:11:46.190Z,51.70
2018-06-03T09:12:46.150Z,53.80
2018-06-03T09:13:46.112Z,53.50
2018-06-03T09:14:46.078Z,52.40
2018-06-03T09:15:46.033Z,50.10
2018-06-03T09:16:45.993Z,49.40
2018-06-03T09:17:45.959Z,51.00
2018-06-03T09:18:45.945Z,52.20
2018-06-03T09:19:45.878Z,48.80
2018-06-03T09:20:45.839Z,49.80
2018-06-03T09:21:45.798Z,52.10
2018-06-03T09:22:45.761Z,51.70
2018-06-03T09:23:45.729Z,50.90
2018-06-03T09:24:45.684Z,49.70
2018-06-03T09:25:45.647Z,48.10
2018-06-03T09:26:45.603Z,48.20
2018-06-03T09:27:45.574Z,50.80
2018-06-03T09:28:45.530Z,50.30
2018-06-03T09:29:45.489Z,50.40
2018-06-03T09:30:45.451Z,49.50
2018-06-03T09:31:45.415Z,51.10
2018-06-03T09:32:45.372Z,50.60
2018-06-03T09:33:45.336Z,50.90
2018-06-03T09:34:45.294Z,50.10
2018-06-03T09:35:45.257Z,51.60
2018-06-03T09:36:45.219Z,48.10
2018-06-03T09:37:45.202Z,46.30
2018-06-03T09:38:45.140Z,53.20
2018-06-03T09:39:45.101Z,51.50
2018-06-03T09:40:45.064Z,49.30
2018-06-03T09:41:45.025Z,51.30
2018-06-03T09:42:44.987Z,48.70
2018-06-03T09:43:44.949Z,47.60
2018-06-03T09:44:44.912Z,49.50
2018-06-03T09:45:44.868Z,48.90
2018-06-03T09:46:44.832Z,52.70
2018-06-03T09:47:44.796Z,52.50
2018-06-03T09:48:44.755Z,49.60
2018-06-03T09:49:44.718Z,48.60
2018-06-03T09:50:44.676Z,49.90
2018-06-03T09:51:44.639Z,50.10
2018-06-03T09:52:44.599Z,50.10
2018-06-03T09:53:44.561Z,48.40
2018-06-03T09:54:44.525Z,50.90
2018-06-03T09:55:44.485Z,50.70
2018-06-03T09:56:44.448Z,49.70
2018-06-03T09:57:44.407Z,49.90
2018-06-03T09:58:44.371Z,48.00
2018-06-03T09:59:44.332Z,50.20
2018-06-03T10:00:44.292Z,49.00
2018-06-03T10:01:44.252Z,44.90
2018-06-03T10:02:44.215Z,46.80
2018-06-03T10:03:44.178Z,46.70
2018-06-03T10:04:44.142Z,47.10
2018-06-03T10:05:44.102Z,48.00
2018-06-03T10:06:44.062Z,46.60
2018-06-03T10:07:44.025Z,45.80
2018-06-03T10:08:43.987Z,45.90
2018-06-03T10:09:43.946Z,47.00
2018-06-03T10:10:43.910Z,45.20
2018-06-03T10:11:43.874Z,47.20
2018-06-03T10:12:43.833Z,47.70
2018-06-03T10:13:43.796Z,46.50
2018-06-03T10:14:43.757Z,44.10
2018-06-03T10:15:43.718Z,44.90
2018-06-03T10:16:43.687Z,41.90
2018-06-03T10:17:43.642Z,42.50
2018-06-03T10:18:43.605Z,40.70
2018-06-03T10:19:43.567Z,39.80
2018-06-03T10:20:43.528Z,38.80
2018-06-03T10:21:43.493Z,38.90
2018-06-03T10:22:43.457Z,37.00
2018-06-03T10:23:43.417Z,37.10
2018-06-03T10:24:43.389Z,41.00
2018-06-03T10:25:43.341Z,42.80
2018-06-03T10:26:43.303Z,40.00
2018-06-03T10:27:43.272Z,37.50
2018-06-03T10:28:43.232Z,33.30
2018-06-03T10:29:43.194Z,31.30
2018-06-03T10:30:43.153Z,31.60
2018-06-03T10:31:43.120Z,34.10
2018-06-03T10:32:43.081Z,31.80
2018-06-03T10:33:43.049Z,33.00
2018-06-03T10:34:43.006Z,33.10
2018-06-03T10:35:42.966Z,33.50
2018-06-03T10:36:42.930Z,34.50
2018-06-03T10:37:42.892Z,33.10
2018-06-03T10:38:42.860Z,30.90
2018-06-03T10:39:42.819Z,30.10
2018-06-03T10:40:42.782Z,27.00
2018-06-03T10:41:42.749Z,29.40
2018-06-03T10:42:42.708Z,29.50
2018-06-03T10:43:42.689Z,31.50
2018-06-03T10:44:42.635Z,29.20
2018-06-03T10:45:42.598Z,30.70
2018-06-03T10:46:42.564Z,28.80
2018-06-03T10:47:42.528Z,28.60
2018-06-03T10:48:42.490Z,28.70
2018-06-03T10:49:42.455Z,31.70
2018-06-03T10:50:42.416Z,34.40
2018-06-03T10:51:42.442Z,38.20
2018-06-03T10:52:42.350Z,31.50
2018-06-03T10:53:42.312Z,31.20
2018-06-03T10:54:42.273Z,30.80
2018-06-03T10:55:42.239Z,32.90
2018-06-03T10:56:42.206Z,34.30
2018-06-03T10:57:42.170Z,41.20
2018-06-03T10:58:42.134Z,31.70
2018-06-03T10:59:42.095Z,29.90
2018-06-03T11:00:42.061Z,25.80
2018-06-03T11:01:42.025Z,21.10
2018-06-03T11:02:41.991Z,21.80
2018-06-03T11:03:41.953Z,22.80
2018-06-03T11:04:41.923Z,22.80
2018-06-03T11:05:41.883Z,22.10
2018-06-03T11:06:41.850Z,23.70
2018-06-03T11:07:41.818Z,24.10
2018-06-03T11:08:41.781Z,24.70
2018-06-03T11:09:41.755Z,25.40
2018-06-03T11:10:41.714Z,26.40
2018-06-03T11:11:41.679Z,28.20
2018-06-03T11:12:41.641Z,30.50
2018-06-03T11:13:41.609Z,27.10
2018-06-03T11:14:41.570Z,28.60
2018-06-03T11:15:41.535Z,30.10
2018-06-03T11:16:41.558Z,28.60
2018-06-03T11:17:41.466Z,26.60
2018-06-03T11:18:41.436Z,27.30
2018-06-03T11:19:41.398Z,24.40
2018-06-03T11:20:41.373Z,22.60
2018-06-03T11:21:41.330Z,24.70
2018-06-03T11:22:41.295Z,26.10
2018-06-03T11:23:41.260Z,26.80
2018-06-03T11:24:41.226Z,28.20
2018-06-03T11:25:41.190Z,26.60
2018-06-03T11:26:41.178Z,25.60
2018-06-03T11:27:41.128Z,27.60
2018-06-03T11:28:41.093Z,46.20
2018-06-03T11:29:41.058Z,32.00
2018-06-03T11:30:41.022Z,29.70
2018-06-03T11:31:40.995Z,30.90
2018-06-03T11:32:40.956Z,36.40
2018-06-03T11:33:40.923Z,32.20
2018-06-03T11:34:40.887Z,28.70
2018-06-03T11:35:40.859Z,30.40
2018-06-03T11:36:40.827Z,32.60
2018-06-03T11:37:40.786Z,29.80
2018-06-03T11:38:40.766Z,26.70
2018-06-03T11:39:40.720Z,26.00
2018-06-03T11:40:40.687Z,23.70
2018-06-03T11:41:40.654Z,23.10
2018-06-03T11:42:40.619Z,21.00
2018-06-03T11:43:40.590Z,22.20
2018-06-03T11:44:40.555Z,21.80
2018-06-03T11:45:40.520Z,20.90
2018-06-03T11:46:40.487Z,20.60
2018-06-03T11:47:40.455Z,20.10
2018-06-03T11:48:40.421Z,19.90
2018-06-03T11:49:40.397Z,22.20
2018-06-03T11:50:40.402Z,22.00
2018-06-03T11:51:40.323Z,24.40
2018-06-03T11:52:40.290Z,22.30
2018-06-03T11:53:40.261Z,22.10
2018-06-03T11:54:40.222Z,23.20
2018-06-03T11:55:40.190Z,24.10
2018-06-03T11:56:40.158Z,25.80
2018-06-03T11:57:40.124Z,24.10
2018-06-03T11:58:40.091Z,20.80
2018-06-03T11:59:40.056Z,22.80
2018-06-03T12:00:40.025Z,19.60
2018-06-03T12:01:40.001Z,23.50
2018-06-03T12:02:39.970Z,24.70
2018-06-03T12:03:39.933Z,22.90
2018-06-03T12:04:39.894Z,22.30
2018-06-03T12:05:39.859Z,24.30
2018-06-03T12:06:39.832Z,23.60
2018-06-03T12:07:39.801Z,24.50
2018-06-03T12:08:39.760Z,24.00
2018-06-03T12:09:39.735Z,26.20
2018-06-03T12:10:39.699Z,26.80
2018-06-03T12:11:39.662Z,24.70
2018-06-03T12:12:39.631Z,24.70
2018-06-03T12:13:39.600Z,23.20
2018-06-03T12:14:39.569Z,23.30
2018-06-03T12:15:39.531Z,22.20
2018-06-03T12:16:39.510Z,19.80
2018-06-03T12:17:39.465Z,21.00
2018-06-03T12:18:39.434Z,21.70
2018-06-03T12:19:39.402Z,22.20
2018-06-03T12:20:39.374Z,20.80
2018-06-03T12:21:39.336Z,21.90
2018-06-03T12:22:39.304Z,21.40
2018-06-03T12:23:39.278Z,21.30
2018-06-03T12:24:39.244Z,21.50
2018-06-03T12:25:39.206Z,21.10
2018-06-03T12:26:39.177Z,19.90
2018-06-03T12:27:39.142Z,22.90
2018-06-03T12:28:39.189Z,23.50
2018-06-03T12:29:39.077Z,24.40
2018-06-03T12:30:39.044Z,26.00
2018-06-03T12:31:39.016Z,23.60
2018-06-03T12:32:38.981Z,23.80
2018-06-03T12:33:38.949Z,24.00
2018-06-03T12:34:38.915Z,23.40
2018-06-03T12:35:38.891Z,24.20
2018-06-03T12:36:38.851Z,28.90
2018-06-03T12:37:38.814Z,26.50
2018-06-03T12:38:38.781Z,26.20
2018-06-03T12:39:38.750Z,25.60
2018-06-03T12:40:38.719Z,26.10
2018-06-03T12:41:38.685Z,24.40
2018-06-03T12:42:38.648Z,23.80
2018-06-03T12:43:38.613Z,25.30
2018-06-03T12:44:38.580Z,28.30
2018-06-03T12:45:38.545Z,27.80
2018-06-03T12:46:38.515Z,26.80
2018-06-03T12:47:38.479Z,27.70
2018-06-03T12:48:38.445Z,26.20
2018-06-03T12:49:38.409Z,27.90
2018-06-03T12:50:38.381Z,26.30
2018-06-03T12:51:38.341Z,26.60
2018-06-03T12:52:38.308Z,23.90